Time;durP1;ratioP1;P1;durP2;ratioP2;P2;SDS_P1;SDS_P2;PMS_P1;PMS_P2;Temp;Humidity;BMP_temperature;BMP_pressure;BME280_temperature;BME280_humidity;BME280_pressure;Samples;Min_cycle;Max_cycle;Signal;HPM_P1;HPM_P2
2023/08/06 00:02:07;;;;;;;13.50;8.20;;;;;;;22.75;100.00;100113.04;105621;1259;65498;-45
2023/08/06 00:04:34;;;;;;;11.10;7.80;;;;;;;22.72;100.00;100123.98;105668;1257;72666;-45
2023/08/06 00:07:02;;;;;;;9.00;8.00;;;;;;;22.68;100.00;100129.16;105614;1258;62035;-45
2023/08/06 00:09:29;;;;;;;15.50;8.80;;;;;;;22.65;100.00;100138.08;105630;1254;60980;-45
2023/08/06 00:11:56;;;;;;;11.50;8.80;;;;;;;22.61;100.00;100146.07;105625;1259;73905;-45
2023/08/06 00:14:23;;;;;;;18.40;9.20;;;;;;;22.59;100.00;100150.63;105575;1255;65454;-45
2023/08/06 00:16:49;;;;;;;12.80;8.50;;;;;;;22.55;100.00;100152.80;105555;1254;72716;-45
2023/08/06 00:19:17;;;;;;;17.90;8.80;;;;;;;22.52;100.00;100164.46;105615;1257;61879;-45
2023/08/06 00:21:44;;;;;;;15.50;8.20;;;;;;;22.51;100.00;100174.05;105739;1259;60457;-45
2023/08/06 00:24:11;;;;;;;16.50;8.60;;;;;;;22.50;100.00;100182.40;105614;1258;73966;-45
2023/08/06 00:26:38;;;;;;;9.30;8.20;;;;;;;22.47;100.00;100189.98;105604;1257;65481;-45
2023/08/06 00:29:05;;;;;;;11.30;8.30;;;;;;;22.43;100.00;100187.10;105563;1254;72467;-45
2023/08/06 00:31:31;;;;;;;10.20;8.20;;;;;;;22.41;100.00;100188.84;105532;1257;61982;-45
2023/08/06 00:33:58;;;;;;;12.30;8.80;;;;;;;22.38;100.00;100198.17;105570;1254;60563;-46
2023/08/06 00:36:25;;;;;;;12.90;9.20;;;;;;;22.37;100.00;100212.08;105409;1255;309504;-45
2023/08/06 00:40:56;;;;;;;12.40;9.80;;;;;;;22.38;100.00;100198.69;102628;1292;600183;-45
2023/08/06 00:43:24;;;;;;;11.30;9.20;;;;;;;22.36;100.00;100214.32;104785;1271;61611;-44
2023/08/06 00:45:52;;;;;;;14.70;8.90;;;;;;;22.35;100.00;100210.68;104791;1269;59232;-44
2023/08/06 00:48:19;;;;;;;14.70;9.30;;;;;;;22.34;100.00;100212.31;104788;1270;72184;-45
2023/08/06 00:50:47;;;;;;;9.50;8.20;;;;;;;22.34;100.00;100213.91;104826;1267;64010;-44
2023/08/06 00:53:15;;;;;;;16.60;10.20;;;;;;;22.33;100.00;100209.23;104816;1270;72174;-45
2023/08/06 00:55:44;;;;;;;15.50;9.70;;;;;;;22.32;100.00;100216.15;104644;1278;308256;-45
2023/08/06 00:58:13;;;;;;;14.80;8.70;;;;;;;22.33;100.00;100215.58;105128;1264;59351;-45
2023/08/06 01:00:41;;;;;;;15.60;9.90;;;;;;;22.32;100.00;100209.69;105199;1262;72231;-45
2023/08/06 01:03:08;;;;;;;11.90;8.90;;;;;;;22.32;100.00;100205.63;105271;1269;63975;-45
2023/08/06 01:05:36;;;;;;;19.80;9.30;;;;;;;22.31;100.00;100198.67;104835;1266;72642;-45
2023/08/06 01:08:19;;;;;;;17.20;8.90;;;;;;;22.31;100.00;100191.10;104819;1270;60477;-45
2023/08/06 01:10:50;;;;;;;12.30;9.00;;;;;;;22.30;100.00;100188.90;104855;1264;59948;-45
2023/08/06 01:13:46;;;;;;;16.40;9.40;;;;;;;22.26;100.00;100191.78;104817;1264;71147;-45
2023/08/06 01:16:18;;;;;;;18.00;9.40;;;;;;;22.19;100.00;100196.35;104901;1270;64176;-44
2023/08/06 01:18:49;;;;;;;11.80;9.80;;;;;;;22.12;100.00;100204.43;104846;1267;71213;-44
2023/08/06 01:21:17;;;;;;;10.30;9.20;;;;;;;22.05;100.00;100214.39;104885;1266;60416;-44
2023/08/06 01:23:45;;;;;;;16.60;10.10;;;;;;;22.00;100.00;100234.27;104962;1271;60046;-45
2023/08/06 01:26:22;;;;;;;10.50;9.30;;;;;;;21.95;100.00;100248.98;104861;1270;73003;-44
2023/08/06 01:29:03;;;;;;;14.60;9.50;;;;;;;21.92;100.00;100260.02;104848;1264;64042;-45
2023/08/06 01:31:32;;;;;;;16.30;8.80;;;;;;;21.89;100.00;100268.55;105632;1259;72688;-45
2023/08/06 01:34:00;;;;;;;11.30;8.90;;;;;;;21.86;100.00;100270.13;105519;1259;61661;-45
2023/08/06 01:36:28;;;;;;;14.50;9.60;;;;;;;21.85;100.00;100272.34;105452;1264;59602;-45
2023/08/06 01:38:57;;;;;;;17.80;9.90;;;;;;;21.80;100.00;100265.42;105539;1257;71789;-45
2023/08/06 01:41:25;;;;;;;12.90;10.30;;;;;;;21.76;100.00;100269.41;105453;1263;65302;-45
2023/08/06 01:43:53;;;;;;;12.10;8.70;;;;;;;21.72;100.00;100272.67;105249;1263;71422;-47
2023/08/06 01:46:20;;;;;;;17.40;8.70;;;;;;;21.68;100.00;100270.08;105452;1260;60431;-45
2023/08/06 01:48:49;;;;;;;14.20;9.10;;;;;;;21.65;100.00;100274.89;105448;1264;59611;-48
2023/08/06 01:51:16;;;;;;;11.10;9.20;;;;;;;21.61;100.00;100280.55;105214;1261;71810;-46
2023/08/06 01:53:44;;;;;;;14.20;9.10;;;;;;;21.58;100.00;100280.97;105254;1260;64038;-46
2023/08/06 01:56:11;;;;;;;12.90;9.50;;;;;;;21.54;100.00;100289.30;105486;1260;70996;-46
2023/08/06 01:58:40;;;;;;;13.70;8.90;;;;;;;21.50;100.00;100296.89;105231;1264;61672;-46
2023/08/06 02:01:08;;;;;;;10.60;8.70;;;;;;;21.47;100.00;100299.94;105259;1265;59605;-45
2023/08/06 02:03:35;;;;;;;14.10;9.30;;;;;;;21.44;100.00;100299.40;105229;1261;72335;-46
2023/08/06 02:06:03;;;;;;;11.70;8.80;;;;;;;21.42;100.00;100305.33;105254;1265;64139;-45
2023/08/06 02:08:31;;;;;;;11.60;9.10;;;;;;;21.43;100.00;100310.94;105541;1260;71493;-45
2023/08/06 02:10:59;;;;;;;11.90;9.00;;;;;;;21.46;100.00;100308.44;105485;1259;59708;-45
2023/08/06 02:13:27;;;;;;;14.90;8.50;;;;;;;21.45;100.00;100293.73;105289;1261;59526;-45
2023/08/06 02:15:54;;;;;;;12.10;9.30;;;;;;;21.45;100.00;100283.40;105495;1259;71861;-45
2023/08/06 02:18:22;;;;;;;16.40;9.40;;;;;;;21.46;100.00;100267.55;105247;1264;63916;-45
2023/08/06 02:20:57;;;;;;;10.70;8.90;;;;;;;21.46;100.00;100259.98;105492;1259;71418;-45
2023/08/06 02:23:25;;;;;;;21.10;10.40;;;;;;;21.47;100.00;100245.18;105308;1260;59740;-44
2023/08/06 02:26:03;;;;;;;13.90;9.70;;;;;;;21.48;100.00;100231.27;105548;1262;59580;-44
2023/08/06 02:28:31;;;;;;;13.90;9.60;;;;;;;21.47;100.00;100221.83;105287;1264;73104;-45
2023/08/06 02:30:59;;;;;;;13.60;9.60;;;;;;;21.47;100.00;100213.23;105529;1259;64398;-44
2023/08/06 02:33:28;;;;;;;17.40;9.00;;;;;;;21.48;100.00;100211.38;105250;1260;71731;-44
2023/08/06 02:36:05;;;;;;;10.70;9.10;;;;;;;21.51;100.00;100204.67;105234;1259;60988;-44
2023/08/06 02:38:33;;;;;;;12.10;9.10;;;;;;;21.57;100.00;100182.72;105557;1259;59712;-45
2023/08/06 02:41:03;;;;;;;14.20;8.50;;;;;;;21.60;100.00;100164.27;105288;1260;72166;-44
2023/08/06 02:43:31;;;;;;;13.30;9.50;;;;;;;21.61;100.00;100148.73;105314;1260;64004;-44
2023/08/06 02:45:59;;;;;;;17.60;8.90;;;;;;;21.62;100.00;100135.71;105423;1259;72328;-44
2023/08/06 02:48:28;;;;;;;14.00;9.60;;;;;;;21.63;100.00;100129.64;105298;1263;60236;-45
2023/08/06 02:50:59;;;;;;;15.70;9.50;;;;;;;21.63;100.00;100125.73;105280;1260;59948;-44
2023/08/06 02:53:28;;;;;;;17.80;9.60;;;;;;;21.64;100.00;100113.23;105286;1260;71842;-46
2023/08/06 02:55:58;;;;;;;26.50;10.80;;;;;;;21.65;100.00;100102.85;105465;1261;64354;-45
2023/08/06 02:58:32;;;;;;;19.00;11.00;;;;;;;21.65;100.00;100099.84;105249;1261;71011;-45
2023/08/06 03:01:15;;;;;;;13.20;10.10;;;;;;;21.66;100.00;100092.92;105478;1259;59953;-46
2023/08/06 03:03:48;;;;;;;18.60;11.30;;;;;;;21.68;100.00;100086.11;105520;1259;60117;-45
2023/08/06 03:06:21;;;;;;;19.90;11.70;;;;;;;21.71;100.00;100082.07;105466;1259;72305;-46
2023/08/06 03:08:50;;;;;;;25.80;12.20;;;;;;;21.74;100.00;100076.42;105483;1259;63757;-45
2023/08/06 03:11:18;;;;;;;17.00;11.60;;;;;;;21.78;100.00;100073.15;105262;1261;72630;-46
2023/08/06 03:13:50;;;;;;;28.70;12.20;;;;;;;21.81;100.00;100064.98;105475;1259;60946;-45
2023/08/06 03:16:18;;;;;;;26.70;13.20;;;;;;;21.85;100.00;100053.89;105509;1262;60044;-45
2023/08/06 03:18:46;;;;;;;24.40;12.80;;;;;;;21.90;100.00;100043.52;105259;1259;73127;-44
2023/08/06 03:21:14;;;;;;;21.00;13.10;;;;;;;21.94;100.00;100033.17;105537;1259;64329;-44
2023/08/06 03:23:42;;;;;;;20.80;12.20;;;;;;;21.97;100.00;100033.50;105268;1258;72673;-45
2023/08/06 03:26:10;;;;;;;19.20;11.60;;;;;;;21.99;100.00;100031.42;105231;1264;60391;-44
2023/08/06 03:28:38;;;;;;;24.70;11.70;;;;;;;22.04;100.00;100021.75;105525;1260;60167;-44
2023/08/06 03:31:06;;;;;;;28.10;12.10;;;;;;;22.09;100.00;100022.08;105550;1262;73035;-44
2023/08/06 03:33:40;;;;;;;21.10;11.90;;;;;;;22.13;100.00;100016.69;105475;1260;63437;-44
2023/08/06 03:36:11;;;;;;;24.10;11.40;;;;;;;22.17;100.00;100014.34;105492;1259;72738;-44
2023/08/06 03:38:39;;;;;;;26.80;11.80;;;;;;;22.21;100.00;100015.75;105224;1264;60456;-46
2023/08/06 03:41:07;;;;;;;15.30;10.30;;;;;;;22.26;100.00;100000.64;105526;1262;59980;-45
2023/08/06 03:43:35;;;;;;;16.20;10.20;;;;;;;22.33;100.00;99995.16;105226;1263;72988;-44
2023/08/06 03:46:05;;;;;;;15.60;9.40;;;;;;;22.38;100.00;99986.90;105267;1261;64306;-45
2023/08/06 03:48:34;;;;;;;14.70;9.10;;;;;;;22.45;100.00;99987.24;105508;1259;70849;-44
2023/08/06 03:51:02;;;;;;;13.40;8.90;;;;;;;22.52;100.00;99980.26;105462;1261;60498;-46
2023/08/06 03:53:29;;;;;;;11.60;8.40;;;;;;;22.60;100.00;99970.65;105462;1262;59675;-45
2023/08/06 03:55:59;;;;;;;10.00;8.70;;;;;;;22.74;100.00;99958.74;105275;1263;72182;-45
2023/08/06 03:58:29;;;;;;;9.00;7.90;;;;;;;22.94;100.00;99945.21;105522;1262;64113;-45
2023/08/06 04:01:01;;;;;;;10.50;8.60;;;;;;;23.21;100.00;99925.50;105249;1260;72651;-45
2023/08/06 04:03:47;;;;;;;9.20;8.00;;;;;;;23.54;100.00;99897.04;105463;1259;59657;-45
2023/08/06 04:06:15;;;;;;;14.00;8.40;;;;;;;23.85;100.00;99878.98;105502;1262;59621;-45
2023/08/06 04:08:43;;;;;;;15.50;9.00;;;;;;;24.16;100.00;99866.40;105297;1259;73051;-45
2023/08/06 04:11:12;;;;;;;12.50;7.80;;;;;;;24.45;100.00;99874.33;105237;1264;64025;-45
2023/08/06 04:13:44;;;;;;;13.80;8.50;;;;;;;24.73;100.00;99891.71;105309;1264;72682;-45
2023/08/06 04:16:14;;;;;;;15.60;7.90;;;;;;;24.99;100.00;99928.95;105479;1259;60009;-44
2023/08/06 04:18:42;;;;;;;14.20;8.00;;;;;;;25.24;100.00;99972.56;105300;1259;59968;-44
2023/08/06 04:21:10;;;;;;;9.80;7.60;;;;;;;25.46;100.00;99994.27;105246;1263;72476;-45
2023/08/06 04:23:38;;;;;;;10.00;8.00;;;;;;;25.67;100.00;100013.09;105492;1262;63918;-45
2023/08/06 04:26:07;;;;;;;14.30;8.30;;;;;;;25.88;100.00;100040.26;105303;1260;71810;-46
2023/08/06 04:28:35;;;;;;;13.00;7.90;;;;;;;26.07;100.00;100061.17;105463;1259;59614;-45
2023/08/06 04:31:03;;;;;;;11.00;7.50;;;;;;;26.24;100.00;100079.98;105304;1259;59764;-46
2023/08/06 04:33:32;;;;;;;12.60;7.70;;;;;;;26.37;100.00;100094.30;105294;1264;71317;-46
2023/08/06 04:36:06;;;;;;;11.00;8.30;;;;;;;26.49;100.00;100110.59;105507;1262;65282;-45
2023/08/06 04:38:34;;;;;;;14.00;8.00;;;;;;;26.57;100.00;100124.02;105290;1260;71393;-46
2023/08/06 04:41:03;;;;;;;11.80;7.70;;;;;;;26.66;100.00;100122.71;105463;1259;59720;-45
2023/08/06 04:43:31;;;;;;;12.00;8.10;;;;;;;26.71;100.00;100136.77;105348;1259;59987;-45
2023/08/06 04:45:58;;;;;;;11.70;7.80;;;;;;;26.68;100.00;100138.08;105299;1259;73003;-45
2023/08/06 04:48:26;;;;;;;10.50;7.50;;;;;;;26.62;100.00;100140.38;105332;1258;63991;-45
2023/08/06 04:50:54;;;;;;;10.90;7.70;;;;;;;26.61;100.00;100143.67;105477;1259;71246;-46
2023/08/06 04:53:22;;;;;;;10.10;7.90;;;;;;;26.66;100.00;100143.24;105340;1259;60506;-45
2023/08/06 04:55:49;;;;;;;8.00;7.20;;;;;;;26.76;100.00;100147.64;105287;1263;61960;-45
2023/08/06 04:58:17;;;;;;;10.60;6.90;;;;;;;26.90;100.00;100145.13;105478;1261;73786;-45
2023/08/06 05:00:45;;;;;;;15.80;7.70;;;;;;;27.08;100.00;100145.40;105470;1259;63874;-46
2023/08/06 05:03:12;;;;;;;13.60;7.10;;;;;;;27.27;100.00;100143.01;105271;1261;72063;-46
2023/08/06 05:05:41;;;;;;;12.50;7.40;;;;;;;27.45;100.00;100141.09;105250;1259;60527;-46
2023/08/06 05:08:15;;;;;;;16.30;6.50;;;;;;;27.64;100.00;100132.76;105505;1259;60345;-45
2023/08/06 05:10:44;;;;;;;8.00;6.80;;;;;;;27.82;100.00;100149.84;105304;1265;73832;-45
2023/08/06 05:13:12;;;;;;;12.70;7.30;;;;;;;27.98;100.00;100137.98;105537;1261;64083;-45
2023/08/06 05:15:42;;;;;;;11.20;7.20;;;;;;;28.13;99.02;100123.48;105511;1260;72606;-45
2023/08/06 05:18:10;;;;;;;17.20;7.60;;;;;;;28.20;94.88;100128.33;105280;1264;60439;-45
2023/08/06 05:20:40;;;;;;;10.40;6.80;;;;;;;28.30;91.79;100128.25;105308;1262;60352;-45
2023/08/06 05:23:08;;;;;;;11.90;6.90;;;;;;;28.40;90.75;100126.55;105523;1259;72588;-45
2023/08/06 05:25:35;;;;;;;9.40;6.50;;;;;;;28.53;88.22;100115.80;105465;1259;63953;-45
2023/08/06 05:28:04;;;;;;;19.20;7.40;;;;;;;28.65;85.50;100112.70;105450;1259;71434;-48
2023/08/06 05:30:31;;;;;;;12.70;6.80;;;;;;;28.74;84.53;100120.86;105509;1260;60637;-46
2023/08/06 05:33:00;;;;;;;18.40;6.80;;;;;;;28.82;82.14;100112.13;105275;1259;60437;-49
2023/08/06 05:35:27;;;;;;;8.30;6.50;;;;;;;28.91;81.48;100121.64;105469;1262;73777;-44
2023/08/06 05:37:55;;;;;;;13.40;6.50;;;;;;;29.05;80.80;100116.93;105474;1258;65229;-50
2023/08/06 05:40:25;;;;;;;12.30;6.50;;;;;;;29.21;78.07;100096.46;105249;1260;72690;-50
2023/08/06 05:42:55;;;;;;;13.10;6.50;;;;;;;29.30;75.38;100076.13;105328;1260;62050;-47
2023/08/06 05:45:23;;;;;;;15.30;6.50;;;;;;;29.34;74.34;100077.01;105268;1258;60342;-44
2023/08/06 05:47:54;;;;;;;10.10;7.00;;;;;;;29.36;75.06;100097.77;105278;1263;73073;-44
2023/08/06 05:50:21;;;;;;;15.70;6.40;;;;;;;29.42;74.40;100095.50;105488;1262;65128;-45
2023/08/06 05:52:49;;;;;;;13.00;7.00;;;;;;;29.50;73.66;100091.36;105513;1258;71659;-45
2023/08/06 05:55:17;;;;;;;13.30;7.00;;;;;;;29.56;72.78;100085.05;105528;1257;60566;-45
2023/08/06 05:57:45;;;;;;;18.40;6.60;;;;;;;29.67;73.95;100105.41;105571;1259;60410;-45
2023/08/06 06:00:13;;;;;;;15.40;6.40;;;;;;;29.83;75.42;100115.39;105489;1257;72902;-45
2023/08/06 06:02:40;;;;;;;12.50;7.10;;;;;;;30.01;74.46;100100.04;105586;1262;65156;-45
2023/08/06 06:05:08;;;;;;;18.40;7.00;;;;;;;30.13;73.59;100089.77;105464;1260;71383;-45
2023/08/06 06:07:37;;;;;;;16.60;7.50;;;;;;;30.19;72.43;100076.69;105433;1261;60577;-45
2023/08/06 06:10:05;;;;;;;8.80;6.90;;;;;;;30.18;72.23;100082.29;105472;1259;60397;-44
2023/08/06 06:12:33;;;;;;;16.40;6.30;;;;;;;30.20;72.07;100086.54;105874;1258;72667;-45
2023/08/06 06:15:01;;;;;;;15.40;6.70;;;;;;;30.18;71.35;100075.81;105256;1259;64095;-45
2023/08/06 06:17:29;;;;;;;10.30;6.20;;;;;;;30.16;70.50;100071.79;105576;1256;73076;-45
2023/08/06 06:19:57;;;;;;;14.70;6.70;;;;;;;30.14;70.89;100082.89;105609;1259;60528;-45
2023/08/06 06:22:24;;;;;;;13.30;6.70;;;;;;;30.08;71.86;100093.43;105717;1258;60353;-45
2023/08/06 06:24:52;;;;;;;31.70;6.90;;;;;;;30.01;71.59;100087.95;105488;1256;73780;-45
2023/08/06 06:27:19;;;;;;;15.20;6.60;;;;;;;29.95;71.60;100087.22;105550;1255;64760;-44
2023/08/06 06:29:47;;;;;;;13.40;7.00;;;;;;;29.93;72.23;100100.90;105501;1256;72644;-45
2023/08/06 06:32:15;;;;;;;13.70;6.40;;;;;;;29.92;73.79;100119.97;105538;1256;60544;-45
2023/08/06 06:34:43;;;;;;;15.60;6.60;;;;;;;29.94;75.21;100127.11;105618;1257;60336;-45
2023/08/06 06:37:11;;;;;;;16.70;6.70;;;;;;;29.96;74.27;100110.02;105577;1254;72991;-45
2023/08/06 06:39:39;;;;;;;20.00;6.90;;;;;;;30.01;75.29;100120.84;105734;1254;64420;-45
2023/08/06 06:42:07;;;;;;;14.60;6.60;;;;;;;30.12;74.73;100108.14;105548;1254;71615;-45
2023/08/06 06:44:36;;;;;;;13.20;7.10;;;;;;;30.22;74.32;100105.71;105856;1254;60486;-44
2023/08/06 06:47:05;;;;;;;13.40;6.60;;;;;;;30.32;74.45;100103.75;105810;1258;60521;-45
2023/08/06 06:49:33;;;;;;;12.70;6.60;;;;;;;30.45;73.47;100085.94;105572;1256;73794;-44
2023/08/06 06:52:01;;;;;;;10.50;6.90;;;;;;;30.56;72.75;100080.02;105530;1258;65396;-45
2023/08/06 06:54:29;;;;;;;11.30;6.90;;;;;;;30.63;71.87;100065.45;105636;1256;71418;-44
2023/08/06 06:56:57;;;;;;;10.80;7.00;;;;;;;30.67;72.41;100076.13;105275;1254;60438;-45
2023/08/06 06:59:25;;;;;;;13.00;6.80;;;;;;;30.67;73.46;100085.33;105646;1254;60420;-45
2023/08/06 07:01:52;;;;;;;12.10;7.30;;;;;;;30.72;73.19;100073.53;105598;1254;73805;-45
2023/08/06 07:04:20;;;;;;;11.60;7.20;;;;;;;30.77;73.08;100069.20;105600;1254;63916;-46
2023/08/06 07:06:48;;;;;;;15.80;7.30;;;;;;;30.83;73.96;100077.60;105563;1254;71434;-46
2023/08/06 07:09:15;;;;;;;12.90;6.70;;;;;;;30.90;73.10;100067.13;105494;1258;60401;-46
2023/08/06 07:11:44;;;;;;;17.10;7.00;;;;;;;30.99;74.26;100082.11;105528;1258;60436;-46
2023/08/06 07:14:11;;;;;;;13.50;6.50;;;;;;;31.09;74.21;100072.05;105471;1255;72658;-46
2023/08/06 07:16:39;;;;;;;13.00;6.80;;;;;;;31.21;73.18;100057.19;105583;1255;65153;-46
2023/08/06 07:19:06;;;;;;;9.90;6.70;;;;;;;31.33;72.68;100053.70;105575;1258;72640;-46
2023/08/06 07:21:34;;;;;;;36.60;7.90;;;;;;;31.51;71.83;100038.52;105568;1256;60420;-46
2023/08/06 07:24:02;;;;;;;39.80;7.90;;;;;;;31.68;71.28;100037.08;105553;1256;60412;-46
2023/08/06 07:26:30;;;;;;;32.50;7.70;;;;;;;31.83;70.27;100024.94;105585;1256;72688;-45
2023/08/06 07:28:57;;;;;;;17.40;6.60;;;;;;;31.94;69.16;100009.37;105710;1254;65251;-46
2023/08/06 07:31:25;;;;;;;28.40;7.50;;;;;;;31.99;67.12;99978.16;105618;1256;70708;-46
2023/08/06 07:33:53;;;;;;;21.00;7.10;;;;;;;32.01;66.80;99987.34;105779;1254;60553;-46
2023/08/06 07:36:20;;;;;;;21.00;6.50;;;;;;;32.07;68.71;100035.52;105575;1258;60343;-45
2023/08/06 07:38:51;;;;;;;20.50;6.40;;;;;;;32.20;66.26;99982.95;105623;1256;72634;-46
2023/08/06 07:41:19;;;;;;;10.90;6.20;;;;;;;32.36;64.12;99935.73;105629;1258;65123;-46
2023/08/06 07:43:46;;;;;;;12.70;6.30;;;;;;;32.58;63.92;99947.04;105511;1256;72637;-46
2023/08/06 07:46:14;;;;;;;13.80;5.90;;;;;;;32.84;62.05;99895.44;105548;1255;60518;-46
2023/08/06 07:48:42;;;;;;;16.50;5.60;;;;;;;33.06;61.93;99919.19;105590;1258;60432;-45
2023/08/06 07:51:10;;;;;;;9.60;5.60;;;;;;;33.22;59.55;99846.50;105562;1257;73906;-46
2023/08/06 07:53:37;;;;;;;7.40;5.70;;;;;;;33.32;58.80;99838.27;105521;1254;64498;-46
2023/08/06 07:56:05;;;;;;;13.70;5.90;;;;;;;33.49;60.01;99893.35;105383;1258;72637;-48
2023/08/06 07:58:33;;;;;;;12.90;5.40;;;;;;;33.62;58.84;99852.77;105756;1254;60538;-49
2023/08/06 08:01:01;;;;;;;12.50;5.20;;;;;;;33.77;57.18;99784.23;105553;1258;60312;-45
2023/08/06 08:03:32;;;;;;;9.70;5.30;;;;;;;33.94;57.37;99808.20;106017;1254;72310;-46
2023/08/06 08:05:59;;;;;;;9.40;5.40;;;;;;;34.11;56.23;99754.25;105593;1257;63954;-45
2023/08/06 08:08:27;;;;;;;16.60;5.00;;;;;;;34.29;56.45;99780.05;105576;1258;71482;-45
2023/08/06 08:10:55;;;;;;;37.90;6.20;;;;;;;34.48;53.85;99637.83;105595;1258;60525;-46
2023/08/06 08:13:23;;;;;;;17.70;5.10;;;;;;;34.62;53.56;99638.63;105891;1256;60342;-45
2023/08/06 08:15:55;;;;;;;10.00;4.90;;;;;;;34.80;51.61;99533.75;105845;1258;73545;-46
2023/08/06 08:18:23;;;;;;;15.60;5.00;;;;;;;34.91;51.08;99513.27;105511;1254;63723;-46
2023/08/06 08:20:50;;;;;;;14.90;4.80;;;;;;;35.01;48.92;99346.05;105581;1256;73171;-45
2023/08/06 08:23:19;;;;;;;16.80;4.60;;;;;;;35.02;48.85;99365.37;105657;1256;60462;-48
2023/08/06 08:25:46;;;;;;;8.10;4.90;;;;;;;35.01;47.51;99263.06;105738;1254;60352;-44
2023/08/06 08:28:14;;;;;;;11.30;4.80;;;;;;;35.00;48.11;99362.75;105584;1254;72806;-46
2023/08/06 08:30:42;;;;;;;16.40;4.70;;;;;;;35.04;47.13;99269.39;105678;1257;64168;-46
2023/08/06 08:33:10;;;;;;;6.20;4.30;;;;;;;35.12;47.18;99282.88;105586;1259;71234;-47
2023/08/06 08:35:37;;;;;;;16.70;4.50;;;;;;;35.20;46.22;99217.80;105463;1254;60492;-46
2023/08/06 08:38:05;;;;;;;13.10;4.80;;;;;;;35.23;44.84;99072.15;105650;1258;60486;-46
2023/08/06 08:40:33;;;;;;;25.00;4.70;;;;;;;35.16;44.95;99081.66;105633;1254;72831;-46
2023/08/06 08:43:00;;;;;;;12.70;4.50;;;;;;;35.18;46.01;99249.95;105607;1256;64007;-46
2023/08/06 08:45:29;;;;;;;12.60;4.20;;;;;;;35.34;46.84;99331.61;105581;1255;73168;-45
2023/08/06 08:47:57;;;;;;;15.10;4.00;;;;;;;35.54;46.33;99267.77;105688;1258;60537;-45
2023/08/06 08:50:25;;;;;;;13.10;4.30;;;;;;;35.77;48.05;99463.44;105610;1258;60520;-46
2023/08/06 08:52:53;;;;;;;14.20;4.20;;;;;;;36.04;47.39;99412.79;105511;1254;72648;-47
2023/08/06 08:55:21;;;;;;;8.40;4.50;;;;;;;36.23;47.01;99336.90;105587;1254;63927;-45
2023/08/06 08:57:49;;;;;;;11.00;4.30;;;;;;;36.35;47.51;99401.14;105692;1259;72713;-44
2023/08/06 09:00:17;;;;;;;17.80;5.00;;;;;;;36.49;47.35;99378.21;105699;1254;60634;-45
2023/08/06 09:02:45;;;;;;;23.00;4.80;;;;;;;36.61;47.24;99366.34;105680;1258;60411;-47
2023/08/06 09:05:13;;;;;;;16.40;4.10;;;;;;;36.74;44.30;99065.81;105623;1256;73843;-47
2023/08/06 09:07:48;;;;;;;15.00;3.80;;;;;;;36.83;46.65;99301.45;105690;1255;63920;-46
2023/08/06 09:10:17;;;;;;;12.50;3.90;;;;;;;36.97;45.81;99238.41;105614;1258;71369;-45
2023/08/06 09:12:45;;;;;;;11.40;3.50;;;;;;;37.08;45.71;99260.65;105583;1256;60451;-48
2023/08/06 09:15:13;;;;;;;26.20;4.20;;;;;;;37.24;44.68;99145.05;105582;1255;60553;-47
2023/08/06 09:17:41;;;;;;;11.00;3.40;;;;;;;37.30;44.40;99105.00;105441;1258;73264;-47
2023/08/06 09:20:12;;;;;;;9.20;3.70;;;;;;;37.33;44.95;99151.13;105521;1256;65004;-46
2023/08/06 09:22:41;;;;;;;14.80;4.60;;;;;;;37.42;44.04;99055.19;105509;1258;71431;-47
2023/08/06 09:25:13;;;;;;;17.10;4.00;;;;;;;37.46;44.11;99055.34;105560;1255;60438;-47
2023/08/06 09:27:41;;;;;;;19.00;3.50;;;;;;;37.54;45.26;99198.80;105654;1254;60616;-45
2023/08/06 09:30:09;;;;;;;9.10;3.90;;;;;;;37.70;45.38;99204.17;105344;1254;73880;-46
2023/08/06 09:32:53;;;;;;;11.70;3.10;;;;;;;37.83;43.62;99020.31;105620;1256;64010;-45
2023/08/06 09:35:21;;;;;;;11.30;4.00;;;;;;;37.91;43.52;99021.04;105704;1256;73103;-46
2023/08/06 09:37:49;;;;;;;14.80;4.10;;;;;;;37.95;42.58;98902.23;105669;1256;60538;-45
2023/08/06 09:40:30;;;;;;;7.30;3.20;;;;;;;37.87;42.66;98913.01;105612;1258;60585;-46
2023/08/06 09:42:59;;;;;;;11.50;4.00;;;;;;;37.86;42.47;98919.67;105576;1258;73811;-45
2023/08/06 09:45:37;;;;;;;6.70;3.60;;;;;;;37.88;42.22;98877.98;105508;1256;66931;-46
2023/08/06 09:48:05;;;;;;;17.20;3.40;;;;;;;37.79;40.75;98718.75;105607;1256;71442;-46
2023/08/06 09:50:36;;;;;;;13.40;3.40;;;;;;;37.75;41.19;98760.20;105599;1255;60562;-45
2023/08/06 09:53:05;;;;;;;11.30;3.40;;;;;;;37.81;40.96;98747.88;105591;1258;60343;-46
2023/08/06 09:55:33;;;;;;;14.40;3.50;;;;;;;37.84;41.86;98829.20;105551;1258;73493;-47
2023/08/06 09:58:01;;;;;;;10.60;3.00;;;;;;;37.96;42.44;98903.70;105837;1258;64188;-46
2023/08/06 10:00:30;;;;;;;17.40;3.60;;;;;;;38.11;42.72;98972.53;105601;1255;71473;-46
2023/08/06 10:02:59;;;;;;;21.20;3.70;;;;;;;38.29;41.73;98827.55;105493;1256;60540;-47
2023/08/06 10:05:28;;;;;;;11.40;3.30;;;;;;;38.39;40.95;98755.92;105641;1258;60539;-47
2023/08/06 10:07:56;;;;;;;10.00;3.80;;;;;;;38.38;41.11;98759.65;105587;1254;73759;-47
2023/08/06 10:10:24;;;;;;;18.50;3.30;;;;;;;38.42;41.37;98794.83;105583;1258;64687;-46
2023/08/06 10:12:52;;;;;;;15.00;3.40;;;;;;;38.45;40.57;98706.45;105637;1254;71721;-46
2023/08/06 10:15:22;;;;;;;10.40;3.40;;;;;;;38.43;39.95;98629.37;105666;1259;60546;-47
2023/08/06 10:17:51;;;;;;;19.10;3.80;;;;;;;38.42;39.87;98610.49;105574;1254;60585;-44
2023/08/06 10:20:21;;;;;;;16.50;4.50;;;;;;;38.41;39.96;98633.81;105606;1258;73789;-46
2023/08/06 10:23:20;;;;;;;29.10;4.60;;;;;;;38.42;40.70;98722.77;105643;1259;65328;-47
2023/08/06 10:25:55;;;;;;;13.00;3.70;;;;;;;38.49;40.26;98690.32;105801;1256;72630;-46
2023/08/06 10:28:23;;;;;;;7.70;3.30;;;;;;;38.50;40.51;98712.20;105598;1256;60408;-46
2023/08/06 10:30:52;;;;;;;15.30;3.50;;;;;;;38.60;41.53;98831.90;105507;1259;60323;-47
2023/08/06 10:33:22;;;;;;;13.00;3.50;;;;;;;38.76;40.12;98685.22;105637;1256;72902;-46
2023/08/06 10:35:53;;;;;;;28.10;3.60;;;;;;;38.79;37.95;98437.92;105632;1256;64025;-44
2023/08/06 10:38:27;;;;;;;21.10;3.90;;;;;;;38.71;37.23;98305.73;105633;1257;71362;-45
2023/08/06 10:40:54;;;;;;;15.80;3.70;;;;;;;38.58;37.68;98353.42;105646;1256;60877;-46
2023/08/06 10:43:32;;;;;;;14.00;3.70;;;;;;;38.56;37.27;98303.64;105598;1258;60781;-46
2023/08/06 10:46:06;;;;;;;17.90;3.60;;;;;;;38.54;36.91;98270.54;105628;1259;72188;-46
2023/08/06 10:48:40;;;;;;;30.80;4.30;;;;;;;38.50;36.36;98176.62;105621;1254;63945;-46
2023/08/06 10:51:12;;;;;;;9.60;3.00;;;;;;;38.43;37.20;98276.20;105737;1258;71372;-45
2023/08/06 10:53:45;;;;;;;10.70;3.00;;;;;;;38.45;37.11;98273.73;105578;1256;60471;-46
2023/08/06 10:56:17;;;;;;;15.00;3.00;;;;;;;38.45;37.43;98322.46;105629;1258;60430;-46
2023/08/06 10:58:45;;;;;;;21.90;3.60;;;;;;;38.49;36.71;98255.81;105626;1258;74484;-46
2023/08/06 11:01:13;;;;;;;18.60;3.40;;;;;;;38.47;36.49;98208.81;105722;1256;65649;-46
2023/08/06 11:03:45;;;;;;;17.10;3.50;;;;;;;38.46;36.70;98210.11;105540;1257;72647;-47
2023/08/06 11:06:20;;;;;;;39.10;3.90;;;;;;;38.44;36.52;98208.38;105639;1257;60426;-46
2023/08/06 11:08:53;;;;;;;13.30;3.10;;;;;;;38.42;35.83;98116.39;105528;1256;60436;-46
2023/08/06 11:11:22;;;;;;;12.80;3.30;;;;;;;38.42;37.43;98289.37;105644;1258;74226;-46
2023/08/06 11:13:50;;;;;;;15.80;3.50;;;;;;;38.57;37.02;98256.80;105656;1259;63871;-47
2023/08/06 11:16:20;;;;;;;9.10;3.50;;;;;;;38.69;36.85;98237.64;105774;1253;72214;-51
2023/08/06 11:18:48;;;;;;;28.40;4.40;;;;;;;38.72;36.32;98182.53;105618;1256;60534;-48
2023/08/06 11:21:19;;;;;;;29.10;4.20;;;;;;;38.62;35.78;98120.00;105552;1253;60594;-48